aviador You're here:

LYPG Decoded Metar

PODGORICA in SERBIA
Report Time2017-08-22 16:30:00
UTC Time2017-08-22 16:43:36
Flight Rules vfr VFR
Wind220° at 08 kt
W.Decomp.*RWY 18: 6.4 kt HW 4.8 kt RCW
W.Rank220° ranks 17
Current wind is above 220° avg. (4.8)
Visibility9999 m
Phenomena:N/A
Clouds:Few 050 Hf
Expected CloudBase > 7,600 ft AGL from Temp-Dew spread
CeilingNone
Temp27°C (ISA +12)
Dew Point08°C (30% RH)
Heat Index26.4°C
AAT23.6°C
QNH1013 hPa
Density Alt1,706 ft
Elevation141 ft
Report Wrong Elevation
Raw Report
LYPG 221630Z 22008KT 9999 FEW050 27/08 Q1013 NOSIG=

Extra information for LYPG:More info

Metar Taf Metar & Taf Last 4 Metars F.Rules Stats Wind Profile Meteogram Temp Stats Airport Information Weather charts Add Link Nearby VenuesMetar ALERT Operation Metar Decoded Social comments